Time;durP1;ratioP1;P1;durP2;ratioP2;P2;SDS_P1;SDS_P2;PMS_P1;PMS_P2;Temp;Humidity;BMP_temperature;BMP_pressure;BME280_temperature;BME280_humidity;BME280_pressure;Samples;Min_cycle;Max_cycle;Signal;HPM_P1;HPM_P2
2021/03/25 00:01:45;;;;;;;14.60;12.83;;;13.10;42.20;;;;;;5038502;28;20657;-53
2021/03/25 00:04:11;;;;;;;17.87;13.00;;;13.10;41.80;;;;;;5050229;28;20661;-53
2021/03/25 00:06:41;;;;;;;13.70;12.30;;;13.10;41.60;;;;;;5050330;28;20674;-53
2021/03/25 00:09:08;;;;;;;14.80;11.90;;;13.00;41.60;;;;;;5050711;28;20629;-54
2021/03/25 00:11:35;;;;;;;13.70;12.33;;;13.00;41.80;;;;;;5049155;28;20671;-53
2021/03/25 00:14:03;;;;;;;16.57;11.87;;;13.00;41.80;;;;;;5048721;28;21039;-53
2021/03/25 00:16:30;;;;;;;14.63;13.10;;;13.00;42.10;;;;;;5044170;28;20745;-53
2021/03/25 00:18:57;;;;;;;14.00;12.57;;;12.90;42.20;;;;;;5053541;28;20657;-53
2021/03/25 00:21:26;;;;;;;14.67;12.53;;;12.90;42.50;;;;;;5053986;28;20674;-52
2021/03/25 00:23:52;;;;;;;20.37;14.77;;;12.80;43.00;;;;;;5053741;28;20661;-53
2021/03/25 00:26:19;;;;;;;14.73;12.20;;;12.80;43.20;;;;;;5054149;28;21434;-53
2021/03/25 00:28:46;;;;;;;16.60;14.10;;;12.80;43.70;;;;;;5053891;28;20991;-53
2021/03/25 00:31:14;;;;;;;14.63;13.10;;;12.70;43.80;;;;;;5050876;28;20654;-53
2021/03/25 00:33:40;;;;;;;14.70;13.10;;;12.70;43.70;;;;;;5045412;28;20692;-53
2021/03/25 00:36:09;;;;;;;14.67;12.93;;;12.70;43.50;;;;;;5050240;28;20694;-54
2021/03/25 00:38:36;;;;;;;12.37;10.60;;;12.70;43.20;;;;;;5053798;28;20673;-53
2021/03/25 00:41:03;;;;;;;13.63;12.30;;;12.70;42.70;;;;;;5037863;28;20647;-53
2021/03/25 00:43:30;;;;;;;14.37;11.40;;;12.70;42.60;;;;;;5027230;28;20684;-56
2021/03/25 00:45:57;;;;;;;15.07;12.33;;;12.70;42.70;;;;;;5021347;28;21216;-54
2021/03/25 00:48:24;;;;;;;14.10;12.50;;;12.60;42.70;;;;;;5015885;28;20674;-53
2021/03/25 00:50:52;;;;;;;13.13;11.37;;;12.60;42.80;;;;;;5047898;28;20669;-53
2021/03/25 00:53:20;;;;;;;14.43;11.73;;;12.60;42.60;;;;;;5054157;28;20629;-53
2021/03/25 00:55:47;;;;;;;17.23;13.03;;;12.60;42.70;;;;;;5052342;28;20700;-53
2021/03/25 00:58:14;;;;;;;14.00;12.37;;;12.60;42.80;;;;;;5053196;28;20726;-54
2021/03/25 01:00:42;;;;;;;14.40;12.90;;;12.50;42.90;;;;;;5053377;28;20665;-53
2021/03/25 01:03:09;;;;;;;15.80;12.67;;;12.50;43.10;;;;;;5053151;28;20665;-53
2021/03/25 01:05:37;;;;;;;14.30;12.90;;;12.50;43.40;;;;;;5053178;28;20658;-53
2021/03/25 01:08:04;;;;;;;15.60;13.97;;;12.40;43.80;;;;;;5043920;28;20682;-53
2021/03/25 01:10:32;;;;;;;15.77;13.77;;;12.40;44.00;;;;;;5034036;28;20623;-53
2021/03/25 01:12:59;;;;;;;13.73;12.20;;;12.40;43.90;;;;;;5049335;28;21022;-53
2021/03/25 01:15:26;;;;;;;18.23;13.37;;;12.30;44.20;;;;;;5041613;28;21190;-53
2021/03/25 01:17:55;;;;;;;14.37;12.87;;;12.30;44.40;;;;;;5043054;28;20699;-52
2021/03/25 01:20:24;;;;;;;14.10;12.53;;;12.20;44.20;;;;;;5039887;28;21176;-53
2021/03/25 01:22:51;;;;;;;13.97;12.43;;;12.20;44.20;;;;;;5053144;28;20662;-53
2021/03/25 01:25:18;;;;;;;15.23;11.63;;;12.20;44.40;;;;;;5052311;28;21215;-53
2021/03/25 01:27:45;;;;;;;12.47;11.27;;;12.20;44.10;;;;;;5052548;28;21182;-53
2021/03/25 01:30:12;;;;;;;14.73;12.60;;;12.20;44.30;;;;;;5044986;28;20701;-53
2021/03/25 01:32:39;;;;;;;15.97;11.17;;;12.20;43.90;;;;;;5053017;28;20664;-53
2021/03/25 01:35:08;;;;;;;18.33;11.50;;;12.10;43.80;;;;;;5052471;28;21005;-53
2021/03/25 01:37:34;;;;;;;13.90;11.03;;;12.10;43.80;;;;;;5052838;28;20674;-53
2021/03/25 01:40:05;;;;;;;16.13;11.73;;;12.10;44.10;;;;;;5047511;28;20661;-53
2021/03/25 01:42:35;;;;;;;14.00;11.80;;;12.10;43.70;;;;;;5052164;28;20656;-53
2021/03/25 01:45:16;;;;;;;15.70;10.30;;;12.10;43.70;;;;;;5048282;28;21207;-52
2021/03/25 01:47:43;;;;;;;12.10;10.83;;;12.10;43.70;;;;;;5033725;28;20691;-52
2021/03/25 01:50:10;;;;;;;13.53;11.93;;;12.00;43.70;;;;;;5042659;28;20665;-52
2021/03/25 01:52:50;;;;;;;15.10;12.33;;;11.90;43.90;;;;;;5032874;28;20659;-52
2021/03/25 01:55:35;;;;;;;12.00;10.70;;;11.90;44.10;;;;;;5034660;28;21273;-52
2021/03/25 01:58:31;;;;;;;11.97;10.60;;;11.80;44.30;;;;;;5052677;28;20693;-52
2021/03/25 02:01:00;;;;;;;13.20;11.27;;;11.80;44.20;;;;;;5042607;28;20664;-51
2021/03/25 02:03:36;;;;;;;15.23;11.87;;;11.80;44.20;;;;;;5034857;28;20625;-52
2021/03/25 02:06:07;;;;;;;15.43;9.53;;;11.80;44.20;;;;;;5050221;28;20653;-52
2021/03/25 02:08:40;;;;;;;15.73;12.17;;;11.80;44.20;;;;;;5035477;28;20733;-52
2021/03/25 02:11:10;;;;;;;14.33;10.90;;;11.80;44.10;;;;;;5037463;28;20681;-52
2021/03/25 02:13:42;;;;;;;15.10;10.83;;;11.80;44.10;;;;;;5037529;28;20658;-52
2021/03/25 02:16:10;;;;;;;14.10;11.27;;;11.80;44.20;;;;;;5039516;28;20689;-52
2021/03/25 02:18:38;;;;;;;13.13;10.53;;;11.70;44.20;;;;;;5052412;28;21471;-53
2021/03/25 02:21:39;;;;;;;13.33;11.30;;;11.70;45.10;;;;;;5047712;28;20658;-53
2021/03/25 02:24:28;;;;;;;10.13;9.10;;;11.60;45.40;;;;;;5009186;28;20658;-53
2021/03/25 02:27:01;;;;;;;11.50;9.60;;;11.60;45.20;;;;;;5034443;28;20650;-53
2021/03/25 02:29:47;;;;;;;12.50;9.97;;;11.50;45.10;;;;;;5044996;28;20642;-53
2021/03/25 02:32:16;;;;;;;12.10;9.23;;;11.50;45.20;;;;;;5039395;28;21172;-53
2021/03/25 02:34:46;;;;;;;14.70;9.40;;;11.40;45.20;;;;;;5038657;28;20640;-53
2021/03/25 02:37:16;;;;;;;12.00;8.67;;;11.40;45.70;;;;;;5044964;28;20690;-54
2021/03/25 02:39:48;;;;;;;10.73;8.60;;;11.30;46.00;;;;;;5051855;28;21235;-54
2021/03/25 02:42:15;;;;;;;11.00;9.30;;;11.20;45.90;;;;;;5051145;28;20638;-54
2021/03/25 02:44:44;;;;;;;9.53;8.63;;;11.20;45.90;;;;;;5051726;28;20676;-53
2021/03/25 02:47:11;;;;;;;11.07;8.27;;;11.20;46.00;;;;;;5051621;28;20686;-54
2021/03/25 02:49:41;;;;;;;13.57;8.83;;;11.10;46.00;;;;;;5039082;28;20666;-53
2021/03/25 02:52:16;;;;;;;10.93;8.90;;;11.10;46.10;;;;;;5052415;28;20642;-52
2021/03/25 02:54:43;;;;;;;10.27;8.10;;;11.10;46.30;;;;;;5051716;28;20666;-52
2021/03/25 02:57:13;;;;;;;9.67;8.10;;;11.00;46.50;;;;;;5048051;28;21066;-52
2021/03/25 02:59:41;;;;;;;13.00;9.70;;;11.00;46.80;;;;;;5051348;28;21014;-53
2021/03/25 03:02:13;;;;;;;10.93;9.57;;;11.00;46.70;;;;;;5033852;28;21029;-53
2021/03/25 03:04:41;;;;;;;13.23;9.43;;;11.00;46.50;;;;;;5050822;28;20634;-53
2021/03/25 03:07:09;;;;;;;10.60;8.83;;;10.90;46.50;;;;;;5033857;28;21176;-52
2021/03/25 03:09:37;;;;;;;17.70;9.60;;;10.90;46.60;;;;;;5050422;28;20664;-52
2021/03/25 03:12:05;;;;;;;8.73;7.80;;;10.90;46.80;;;;;;5051221;28;20626;-52
2021/03/25 03:14:40;;;;;;;13.27;8.90;;;10.90;46.80;;;;;;5032857;28;20680;-52
2021/03/25 03:17:08;;;;;;;7.80;6.47;;;10.90;47.30;;;;;;5050839;28;20720;-53
2021/03/25 03:19:37;;;;;;;14.53;8.10;;;10.80;47.10;;;;;;5036458;28;20650;-53
2021/03/25 03:22:05;;;;;;;12.30;8.43;;;10.80;47.30;;;;;;5031748;28;20657;-53
2021/03/25 03:24:32;;;;;;;10.23;7.50;;;10.80;47.30;;;;;;5047441;28;20676;-53
2021/03/25 03:27:00;;;;;;;9.63;8.67;;;10.70;47.20;;;;;;5032427;28;20678;-53
2021/03/25 03:29:28;;;;;;;10.20;8.67;;;10.70;47.20;;;;;;5031138;28;20661;-53
2021/03/25 03:31:55;;;;;;;11.03;9.40;;;10.70;47.10;;;;;;5031196;28;20650;-53
2021/03/25 03:34:24;;;;;;;18.90;9.60;;;10.70;47.40;;;;;;5048197;28;20654;-53
2021/03/25 03:36:52;;;;;;;11.23;7.77;;;10.70;47.30;;;;;;5076131;22;20696;-55
2021/03/25 03:39:21;;;;;;;9.33;8.33;;;10.70;47.30;;;;;;5060382;28;20672;-59
2021/03/25 03:41:49;;;;;;;8.87;7.57;;;10.60;47.50;;;;;;5031759;28;21038;-58
2021/03/25 03:44:18;;;;;;;10.50;7.77;;;10.60;47.50;;;;;;5045201;28;20652;-58
2021/03/25 03:46:44;;;;;;;10.20;8.47;;;10.50;47.60;;;;;;5053342;28;20662;-58
2021/03/25 03:49:13;;;;;;;9.57;7.80;;;10.50;47.70;;;;;;5075413;28;20652;-57
2021/03/25 03:51:43;;;;;;;13.63;8.73;;;10.50;47.80;;;;;;5059363;28;20669;-56
2021/03/25 03:54:09;;;;;;;10.10;8.10;;;10.50;47.70;;;;;;5053573;28;21223;-58
2021/03/25 03:56:41;;;;;;;16.83;8.83;;;10.40;47.70;;;;;;5043123;28;21201;-57
2021/03/25 03:59:10;;;;;;;10.80;8.60;;;10.40;47.80;;;;;;5053638;28;20649;-59
2021/03/25 04:01:38;;;;;;;13.47;9.17;;;10.30;47.80;;;;;;5061565;28;20657;-56
2021/03/25 04:04:06;;;;;;;10.40;9.33;;;10.20;47.90;;;;;;5075307;28;20661;-56
2021/03/25 04:06:36;;;;;;;11.20;9.53;;;10.20;48.00;;;;;;5060263;28;20622;-56
2021/03/25 04:09:05;;;;;;;10.20;7.33;;;10.20;48.00;;;;;;5054463;28;20991;-56
2021/03/25 04:11:34;;;;;;;12.10;9.20;;;10.20;48.20;;;;;;5049844;28;20662;-56
2021/03/25 04:14:03;;;;;;;11.13;8.90;;;10.10;48.20;;;;;;5050029;28;20662;-56
2021/03/25 04:16:30;;;;;;;10.90;9.73;;;10.10;48.40;;;;;;5054692;28;20707;-56
2021/03/25 04:18:59;;;;;;;10.70;9.00;;;10.00;48.50;;;;;;5058139;28;20688;-56
2021/03/25 04:21:27;;;;;;;14.13;9.20;;;10.00;48.60;;;;;;5063783;28;21154;-57
2021/03/25 04:23:54;;;;;;;11.07;8.30;;;10.00;48.80;;;;;;5054665;28;20654;-57
2021/03/25 04:26:22;;;;;;;11.03;8.63;;;9.90;49.80;;;;;;5053258;28;20672;-56
2021/03/25 04:28:51;;;;;;;12.07;8.93;;;9.90;50.00;;;;;;5059520;28;20680;-56
2021/03/25 04:31:19;;;;;;;11.37;8.93;;;9.80;50.00;;;;;;5063825;28;21206;-56
2021/03/25 04:33:46;;;;;;;9.83;8.37;;;9.80;50.20;;;;;;5074840;28;21185;-58
2021/03/25 04:36:16;;;;;;;14.20;10.83;;;9.80;50.40;;;;;;5061133;28;20665;-57
2021/03/25 04:38:43;;;;;;;12.00;9.20;;;9.70;50.50;;;;;;5052180;28;20697;-56
2021/03/25 04:41:09;;;;;;;11.30;8.50;;;9.70;50.60;;;;;;5053199;28;20661;-57
2021/03/25 04:43:36;;;;;;;12.83;9.63;;;9.70;50.80;;;;;;5059138;28;20653;-58
2021/03/25 04:46:07;;;;;;;12.90;9.17;;;9.60;50.90;;;;;;5059847;28;20666;-56
2021/03/25 04:48:40;;;;;;;10.70;8.40;;;9.60;50.90;;;;;;5060413;28;20696;-56
2021/03/25 04:51:07;;;;;;;12.60;9.63;;;9.60;51.00;;;;;;5034445;28;20654;-56
2021/03/25 04:53:35;;;;;;;13.20;9.13;;;9.60;51.10;;;;;;5033892;28;20666;-58
2021/03/25 04:56:02;;;;;;;16.30;9.17;;;9.70;51.10;;;;;;5034047;28;20649;-57
2021/03/25 04:58:31;;;;;;;11.97;9.90;;;9.60;51.00;;;;;;5038953;28;20698;-56
2021/03/25 05:01:02;;;;;;;9.50;7.73;;;9.60;51.10;;;;;;5073945;28;20664;-58
2021/03/25 05:03:29;;;;;;;11.00;9.30;;;9.60;51.20;;;;;;5073999;28;20629;-57
2021/03/25 05:05:57;;;;;;;13.23;9.43;;;9.50;51.10;;;;;;5073790;28;20653;-57
2021/03/25 05:08:26;;;;;;;16.17;8.10;;;9.50;51.30;;;;;;5071683;28;20691;-58
2021/03/25 05:10:57;;;;;;;11.07;9.10;;;9.50;51.40;;;;;;5050961;28;20670;-57
2021/03/25 05:13:25;;;;;;;11.30;8.40;;;9.50;51.30;;;;;;5048773;28;20651;-55
2021/03/25 05:16:05;;;;;;;9.40;8.50;;;9.40;51.30;;;;;;5066299;28;20632;-56
2021/03/25 05:18:32;;;;;;;12.90;8.80;;;9.30;51.50;;;;;;5072149;28;21309;-55
2021/03/25 05:21:01;;;;;;;14.63;8.77;;;9.30;51.50;;;;;;5058871;28;20672;-56
2021/03/25 05:23:29;;;;;;;16.73;8.90;;;9.30;51.60;;;;;;5072982;28;20655;-58
2021/03/25 05:26:00;;;;;;;8.40;7.53;;;9.20;51.80;;;;;;5073494;28;20676;-56
2021/03/25 05:28:28;;;;;;;12.67;10.00;;;9.20;52.10;;;;;;5072798;28;20917;-56
2021/03/25 05:30:55;;;;;;;15.77;9.63;;;9.30;52.20;;;;;;5058768;28;20673;-58
2021/03/25 05:33:23;;;;;;;14.80;9.93;;;9.20;52.20;;;;;;5073224;28;20664;-55
2021/03/25 05:35:54;;;;;;;11.80;9.60;;;9.30;52.10;;;;;;5072590;28;20664;-57
2021/03/25 05:38:21;;;;;;;12.67;9.70;;;9.30;52.20;;;;;;5072439;28;21083;-56
2021/03/25 05:40:50;;;;;;;17.30;10.17;;;9.20;52.40;;;;;;5048476;28;20680;-57
2021/03/25 05:43:52;;;;;;;10.40;8.73;;;9.20;52.70;;;;;;5053593;28;20656;-58
2021/03/25 05:46:25;;;;;;;13.10;9.80;;;9.20;52.80;;;;;;5052959;28;20613;-56
2021/03/25 05:49:03;;;;;;;11.27;9.77;;;9.30;53.10;;;;;;5038065;28;20698;-57
2021/03/25 05:51:33;;;;;;;12.10;9.60;;;9.40;53.00;;;;;;5073026;28;21188;-55
2021/03/25 05:54:11;;;;;;;13.50;10.27;;;9.40;52.90;;;;;;5073430;28;20694;-57
2021/03/25 05:56:44;;;;;;;12.30;8.83;;;9.40;52.90;;;;;;5065556;28;20678;-57
2021/03/25 05:59:12;;;;;;;15.13;10.60;;;9.40;53.00;;;;;;5072682;28;20621;-57
2021/03/25 06:01:49;;;;;;;13.03;9.73;;;9.50;53.30;;;;;;5071372;28;20660;-57
2021/03/25 06:04:17;;;;;;;11.33;9.60;;;9.50;53.40;;;;;;5052575;28;20625;-56
2021/03/25 06:07:05;;;;;;;13.50;11.03;;;9.50;53.30;;;;;;5052235;28;20660;-57
2021/03/25 06:09:50;;;;;;;11.73;10.53;;;9.60;53.40;;;;;;5035745;28;20638;-57
2021/03/25 06:12:21;;;;;;;11.33;10.00;;;9.60;53.50;;;;;;5041437;28;20633;-57
2021/03/25 06:14:53;;;;;;;11.33;8.00;;;9.70;53.90;;;;;;5052833;28;20629;-56
2021/03/25 06:18:01;;;;;;;17.23;10.90;;;9.80;54.00;;;;;;5052165;28;21276;-57
2021/03/25 06:20:38;;;;;;;11.83;9.60;;;9.80;53.90;;;;;;4993306;28;20692;-57
2021/03/25 06:23:23;;;;;;;12.03;9.53;;;9.90;53.90;;;;;;5032592;28;20614;-55
2021/03/25 06:25:57;;;;;;;12.47;10.63;;;9.90;54.00;;;;;;5032476;28;20631;-57
2021/03/25 06:28:41;;;;;;;11.27;9.37;;;10.00;53.00;;;;;;5051688;28;20678;-58
2021/03/25 06:31:21;;;;;;;15.73;10.87;;;10.10;53.00;;;;;;5052541;28;20621;-56
2021/03/25 06:33:54;;;;;;;15.87;10.63;;;10.10;52.90;;;;;;5052024;28;20590;-58
2021/03/25 06:36:24;;;;;;;11.60;10.33;;;10.20;53.00;;;;;;5047364;28;20653;-57
2021/03/25 06:38:52;;;;;;;20.10;12.00;;;10.30;53.10;;;;;;5049908;28;21073;-57
2021/03/25 06:41:22;;;;;;;10.43;9.33;;;10.30;53.10;;;;;;5049870;28;20621;-57
2021/03/25 06:43:50;;;;;;;11.70;10.43;;;10.40;53.20;;;;;;5051490;28;20662;-58
2021/03/25 06:46:18;;;;;;;14.73;10.63;;;10.50;53.20;;;;;;5051865;28;20653;-59
2021/03/25 06:48:47;;;;;;;13.60;11.20;;;10.60;53.10;;;;;;5051989;28;20630;-58
2021/03/25 06:51:18;;;;;;;13.43;11.20;;;10.80;52.90;;;;;;5051869;28;20662;-58
2021/03/25 06:53:45;;;;;;;16.57;11.50;;;10.90;52.60;;;;;;5048934;28;21030;-57
2021/03/25 06:56:15;;;;;;;19.00;14.87;;;11.10;52.30;;;;;;5051261;28;20633;-58
2021/03/25 06:58:45;;;;;;;27.10;11.17;;;11.20;52.00;;;;;;5072019;28;20698;-57
2021/03/25 07:01:19;;;;;;;13.00;11.60;;;11.30;51.80;;;;;;5062541;28;20662;-58
2021/03/25 07:03:46;;;;;;;18.37;10.73;;;11.40;51.60;;;;;;5052092;28;20639;-57
2021/03/25 07:06:13;;;;;;;12.90;10.07;;;11.50;51.70;;;;;;5052256;28;20669;-57
2021/03/25 07:08:40;;;;;;;13.53;11.10;;;11.60;51.50;;;;;;5049982;28;20751;-58
2021/03/25 07:11:14;;;;;;;15.97;10.03;;;11.80;51.50;;;;;;5041003;28;21029;-57
2021/03/25 07:13:43;;;;;;;11.97;10.70;;;11.90;51.50;;;;;;5070228;28;20644;-57
2021/03/25 07:16:10;;;;;;;15.90;10.83;;;12.00;51.20;;;;;;5042144;28;20637;-57
2021/03/25 07:18:43;;;;;;;11.83;9.33;;;12.20;50.80;;;;;;5032016;28;20702;-58
2021/03/25 07:21:34;;;;;;;11.17;9.17;;;12.30;50.80;;;;;;5051337;28;20986;-58
2021/03/25 07:24:03;;;;;;;11.33;9.97;;;12.30;50.10;;;;;;5052809;28;21209;-57
2021/03/25 07:26:35;;;;;;;12.30;10.50;;;12.40;49.60;;;;;;5050314;28;20641;-56
2021/03/25 07:29:23;;;;;;;13.00;9.13;;;12.40;49.40;;;;;;5052862;28;21127;-56
2021/03/25 07:31:57;;;;;;;14.03;11.80;;;12.30;49.40;;;;;;5053194;28;20637;-57
2021/03/25 07:34:29;;;;;;;12.40;10.40;;;12.20;49.60;;;;;;5054283;28;20618;-59
2021/03/25 07:36:55;;;;;;;12.70;11.43;;;12.10;50.00;;;;;;5054023;28;20654;-58
2021/03/25 07:39:23;;;;;;;11.63;9.80;;;12.10;50.40;;;;;;5066320;28;20650;-58
2021/03/25 07:41:52;;;;;;;11.53;10.20;;;12.20;50.80;;;;;;5049264;28;20635;-59
2021/03/25 07:44:38;;;;;;;10.57;9.47;;;12.30;50.10;;;;;;5031301;28;20631;-57
2021/03/25 07:47:06;;;;;;;16.87;11.97;;;12.40;50.00;;;;;;5032080;28;20650;-57
2021/03/25 07:49:33;;;;;;;17.90;11.00;;;12.40;50.10;;;;;;5031022;28;21171;-59
2021/03/25 07:52:04;;;;;;;10.73;9.57;;;12.40;49.90;;;;;;5029041;28;20631;-59
2021/03/25 07:54:32;;;;;;;12.53;9.83;;;12.50;50.00;;;;;;5030803;28;20661;-58
2021/03/25 07:57:10;;;;;;;12.03;10.77;;;12.50;50.00;;;;;;5043643;28;20689;-57
2021/03/25 07:59:42;;;;;;;12.07;10.90;;;12.50;50.10;;;;;;5049084;28;20622;-57
2021/03/25 08:02:27;;;;;;;10.40;8.97;;;12.60;50.30;;;;;;5051151;28;20645;-59
2021/03/25 08:04:54;;;;;;;12.87;9.53;;;12.60;50.20;;;;;;5030854;28;21014;-58
2021/03/25 08:07:21;;;;;;;12.70;11.10;;;12.70;50.10;;;;;;5031241;28;20690;-58
2021/03/25 08:09:50;;;;;;;11.63;10.13;;;12.80;50.30;;;;;;5034116;28;21313;-56
2021/03/25 08:12:28;;;;;;;10.80;9.50;;;12.90;50.20;;;;;;5046296;28;20658;-57
2021/03/25 08:15:24;;;;;;;10.40;9.40;;;13.00;50.20;;;;;;5031167;28;21101;-57
2021/03/25 08:18:00;;;;;;;10.37;9.37;;;13.20;50.20;;;;;;5029860;28;20699;-58
2021/03/25 08:20:30;;;;;;;12.30;9.53;;;13.40;49.90;;;;;;5031395;28;20635;-57
2021/03/25 08:23:02;;;;;;;12.40;8.80;;;13.60;49.80;;;;;;5030699;28;20638;-56
2021/03/25 08:25:39;;;;;;;10.50;9.40;;;13.70;49.40;;;;;;5033121;28;20665;-56
2021/03/25 08:28:33;;;;;;;10.80;8.90;;;13.80;49.10;;;;;;5050309;28;20720;-57
2021/03/25 08:31:10;;;;;;;9.60;8.70;;;14.00;48.80;;;;;;5015263;28;20936;-57
2021/03/25 08:33:47;;;;;;;11.37;9.67;;;14.10;48.20;;;;;;5050306;28;20675;-57
2021/03/25 08:36:22;;;;;;;10.13;9.10;;;14.10;48.30;;;;;;5054265;28;20625;-58
2021/03/25 08:39:27;;;;;;;9.17;8.33;;;14.10;47.90;;;;;;5043869;28;20720;-57
2021/03/25 08:41:58;;;;;;;8.40;7.60;;;14.20;50.70;;;;;;5059874;28;21293;-58
2021/03/25 08:44:30;;;;;;;10.40;9.03;;;14.70;50.70;;;;;;5032068;28;20707;-57
2021/03/25 08:47:00;;;;;;;11.47;9.27;;;15.00;47.50;;;;;;5033337;28;20658;-59
2021/03/25 08:49:28;;;;;;;15.03;9.90;;;14.90;46.60;;;;;;5041599;28;20648;-55
2021/03/25 08:51:55;;;;;;;10.43;9.20;;;14.90;46.70;;;;;;5052173;28;20630;-56
2021/03/25 08:54:24;;;;;;;11.63;10.63;;;14.90;46.20;;;;;;5054030;28;20625;-58
2021/03/25 08:56:52;;;;;;;13.27;9.40;;;14.80;45.90;;;;;;5053679;28;20764;-58
2021/03/25 08:59:21;;;;;;;10.40;8.20;;;14.90;47.20;;;;;;5053957;28;20694;-59
2021/03/25 09:01:50;;;;;;;10.93;8.90;;;14.80;45.90;;;;;;5053834;28;20657;-58
2021/03/25 09:04:18;;;;;;;9.60;8.60;;;14.70;45.80;;;;;;5053719;28;20649;-59
2021/03/25 09:06:46;;;;;;;10.60;9.70;;;14.60;45.90;;;;;;5052757;28;20630;-55
2021/03/25 09:09:34;;;;;;;9.33;8.33;;;14.60;45.90;;;;;;5033475;28;21210;-55
2021/03/25 09:12:02;;;;;;;9.77;8.77;;;14.60;46.40;;;;;;5032765;28;20710;-58
2021/03/25 09:14:29;;;;;;;9.40;8.37;;;14.70;46.10;;;;;;5043801;28;20654;-56
2021/03/25 09:17:01;;;;;;;10.43;9.43;;;14.70;46.00;;;;;;5052783;28;21043;-57
2021/03/25 09:19:29;;;;;;;13.23;9.80;;;14.80;45.90;;;;;;5052732;28;20926;-60
2021/03/25 09:21:57;;;;;;;10.47;9.40;;;14.90;45.70;;;;;;5053393;28;20665;-60
2021/03/25 09:24:24;;;;;;;10.47;9.47;;;14.90;46.00;;;;;;5053317;28;20657;-56
2021/03/25 09:26:53;;;;;;;10.83;9.73;;;14.80;45.80;;;;;;5052637;28;21217;-57
2021/03/25 09:29:22;;;;;;;11.07;9.60;;;14.80;46.00;;;;;;5052876;28;20656;-57
2021/03/25 09:32:34;;;;;;;10.23;8.80;;;14.90;45.90;;;;;;5053365;28;20649;-57
2021/03/25 09:35:20;;;;;;;9.30;8.40;;;15.00;46.20;;;;;;5052862;28;20629;-57
2021/03/25 09:37:52;;;;;;;11.27;9.40;;;15.10;46.00;;;;;;5077334;22;20726;-52
2021/03/25 09:40:35;;;;;;;9.13;8.23;;;15.00;46.00;;;;;;5112770;28;20664;-51
2021/03/25 09:43:23;;;;;;;9.53;8.53;;;15.10;46.40;;;;;;5106918;28;20662;-53
2021/03/25 09:45:50;;;;;;;11.00;9.80;;;15.20;46.30;;;;;;5111041;28;20981;-52
2021/03/25 09:48:20;;;;;;;11.90;10.73;;;15.10;46.00;;;;;;5112019;28;20651;-52
2021/03/25 09:51:02;;;;;;;11.57;10.20;;;15.20;46.00;;;;;;5092906;28;20724;-53
2021/03/25 09:53:39;;;;;;;12.70;11.00;;;15.30;45.80;;;;;;5091723;28;20624;-53
2021/03/25 09:56:23;;;;;;;11.70;10.27;;;15.40;45.90;;;;;;5090289;28;20681;-52
2021/03/25 09:58:50;;;;;;;12.63;8.73;;;15.50;45.80;;;;;;5090922;28;21356;-53
2021/03/25 10:01:38;;;;;;;14.43;10.90;;;15.60;45.70;;;;;;5091139;28;20656;-53
2021/03/25 10:04:28;;;;;;;12.83;11.53;;;15.70;45.50;;;;;;5091895;28;20643;-54
2021/03/25 10:07:12;;;;;;;15.37;12.20;;;15.80;45.10;;;;;;5091089;28;20636;-55
2021/03/25 10:10:21;;;;;;;11.90;10.70;;;16.00;45.00;;;;;;5088075;28;20632;-51
2021/03/25 10:12:53;;;;;;;14.10;12.50;;;16.20;45.00;;;;;;5091864;28;20628;-56
2021/03/25 10:15:53;;;;;;;11.97;10.73;;;16.40;44.70;;;;;;5090524;28;20625;-51
2021/03/25 10:18:43;;;;;;;12.63;11.33;;;16.70;44.40;;;;;;5071350;28;20649;-53
2021/03/25 10:21:14;;;;;;;26.27;13.27;;;17.00;43.90;;;;;;5089904;28;20621;-52
2021/03/25 10:23:57;;;;;;;11.90;10.80;;;17.20;43.40;;;;;;5090943;28;20624;-52
2021/03/25 10:26:35;;;;;;;12.83;11.53;;;17.30;43.40;;;;;;5092626;28;20628;-51
2021/03/25 10:29:04;;;;;;;14.97;13.40;;;17.50;42.90;;;;;;5089378;28;20683;-53
2021/03/25 10:31:39;;;;;;;11.30;10.10;;;17.70;42.70;;;;;;5090122;28;21249;-52
2021/03/25 10:34:07;;;;;;;8.83;7.93;;;17.90;42.80;;;;;;5090657;28;20862;-52
2021/03/25 10:36:37;;;;;;;15.10;12.20;;;18.00;41.80;;;;;;5090729;28;21137;-52
2021/03/25 10:39:06;;;;;;;15.47;13.83;;;17.70;42.20;;;;;;5090743;28;20672;-52
2021/03/25 10:41:34;;;;;;;18.23;15.60;;;17.80;42.50;;;;;;5091238;28;20659;-51
2021/03/25 10:44:16;;;;;;;17.47;14.60;;;17.90;42.20;;;;;;5090618;28;21268;-53
2021/03/25 10:46:43;;;;;;;17.27;14.63;;;18.00;41.90;;;;;;5089574;28;20719;-52
2021/03/25 10:49:15;;;;;;;17.23;13.43;;;18.00;42.00;;;;;;5089886;28;20632;-52
2021/03/25 10:51:43;;;;;;;18.57;16.73;;;18.40;41.40;;;;;;5091727;28;20652;-53
2021/03/25 10:54:26;;;;;;;20.80;18.53;;;18.60;40.70;;;;;;5091718;28;20992;-54
2021/03/25 10:57:04;;;;;;;21.27;16.83;;;19.00;40.90;;;;;;5089999;28;20628;-52
2021/03/25 10:59:31;;;;;;;20.87;15.43;;;19.50;40.50;;;;;;5090672;28;20727;-52
2021/03/25 11:01:59;;;;;;;16.80;13.80;;;19.90;38.90;;;;;;5091903;28;20636;-53
2021/03/25 11:04:27;;;;;;;18.27;16.23;;;19.30;38.20;;;;;;5090350;28;20635;-53
2021/03/25 11:06:54;;;;;;;22.17;16.20;;;18.70;39.30;;;;;;5090044;28;20675;-52
2021/03/25 11:09:24;;;;;;;21.23;16.47;;;18.60;40.30;;;;;;5089918;28;20674;-53
2021/03/25 11:11:52;;;;;;;25.03;17.00;;;18.50;40.20;;;;;;5089736;28;20758;-54
2021/03/25 11:14:23;;;;;;;25.30;18.30;;;18.40;40.10;;;;;;5090607;28;20660;-53
2021/03/25 11:16:51;;;;;;;25.37;19.67;;;18.00;41.10;;;;;;5089790;28;20670;-51
2021/03/25 11:19:21;;;;;;;22.40;16.03;;;17.60;41.10;;;;;;5088735;28;21248;-52
2021/03/25 11:21:53;;;;;;;23.60;17.60;;;17.40;41.80;;;;;;5090681;28;20628;-53
2021/03/25 11:24:24;;;;;;;27.47;15.10;;;17.30;42.20;;;;;;5089429;28;20677;-53
2021/03/25 11:26:54;;;;;;;26.93;17.03;;;17.20;42.70;;;;;;5089379;28;20690;-54
2021/03/25 11:29:21;;;;;;;19.37;15.47;;;17.00;42.80;;;;;;5089663;28;20617;-54
2021/03/25 11:31:48;;;;;;;20.80;16.40;;;17.10;43.10;;;;;;5090106;28;20649;-54
2021/03/25 11:34:24;;;;;;;28.17;21.47;;;17.00;43.30;;;;;;5090185;28;20616;-53
2021/03/25 11:36:54;;;;;;;22.10;16.20;;;17.20;43.60;;;;;;5090551;28;20667;-53
2021/03/25 11:39:24;;;;;;;23.33;17.37;;;17.20;43.10;;;;;;5088695;28;20708;-53
2021/03/25 11:41:52;;;;;;;21.20;18.90;;;17.30;43.20;;;;;;5088499;28;20996;-52
2021/03/25 11:44:43;;;;;;;22.07;17.90;;;17.30;43.00;;;;;;5085648;28;21702;-52
2021/03/25 11:47:35;;;;;;;27.80;19.87;;;17.40;43.10;;;;;;5090352;28;21012;-51
2021/03/25 11:50:03;;;;;;;24.00;18.90;;;17.50;43.10;;;;;;5086119;28;20954;-53
2021/03/25 11:52:40;;;;;;;24.53;17.70;;;17.50;42.90;;;;;;5089549;28;20675;-52
2021/03/25 11:55:18;;;;;;;22.03;18.40;;;17.40;42.80;;;;;;5090705;28;21163;-54
2021/03/25 11:57:45;;;;;;;23.50;19.63;;;17.30;43.00;;;;;;5088880;28;21196;-53
2021/03/25 12:00:14;;;;;;;23.67;17.20;;;17.20;43.20;;;;;;5089305;28;20676;-52
2021/03/25 12:02:41;;;;;;;24.97;18.37;;;17.30;43.50;;;;;;5088352;28;20990;-53
2021/03/25 12:05:38;;;;;;;22.80;20.10;;;17.40;43.10;;;;;;5089892;28;20660;-54
2021/03/25 12:08:06;;;;;;;26.33;21.40;;;17.40;43.20;;;;;;5091614;28;20659;-53
2021/03/25 12:10:35;;;;;;;24.63;15.40;;;17.60;43.30;;;;;;5095151;28;20620;-53
2021/03/25 12:13:02;;;;;;;26.47;18.47;;;17.80;42.80;;;;;;5093449;28;20647;-56
2021/03/25 12:15:29;;;;;;;27.40;22.50;;;17.70;42.80;;;;;;5092282;28;20632;-52
2021/03/25 12:17:57;;;;;;;28.10;20.17;;;17.60;43.00;;;;;;5094132;28;20652;-52
2021/03/25 12:20:29;;;;;;;24.73;20.90;;;17.70;43.40;;;;;;5094342;28;20660;-54
2021/03/25 12:23:02;;;;;;;21.83;15.67;;;17.80;43.00;;;;;;5094311;28;20624;-55
2021/03/25 12:25:29;;;;;;;26.60;18.87;;;18.00;42.40;;;;;;5092382;28;20628;-54
2021/03/25 12:27:57;;;;;;;23.90;19.27;;;18.20;42.40;;;;;;5093753;28;21187;-54
2021/03/25 12:30:24;;;;;;;18.83;16.20;;;18.30;42.30;;;;;;5092991;28;20628;-55
2021/03/25 12:32:52;;;;;;;21.63;16.97;;;18.60;41.90;;;;;;5095057;28;20632;-52
2021/03/25 12:35:22;;;;;;;20.23;15.90;;;18.90;41.70;;;;;;5092145;28;20652;-55
2021/03/25 12:37:49;;;;;;;28.80;21.53;;;19.20;41.20;;;;;;5093603;28;20686;-53
2021/03/25 12:40:17;;;;;;;25.50;22.10;;;19.30;40.80;;;;;;5093070;28;20692;-54
2021/03/25 12:42:43;;;;;;;29.67;24.77;;;19.40;40.80;;;;;;5093184;28;20636;-55
2021/03/25 12:45:21;;;;;;;31.10;24.40;;;19.30;40.10;;;;;;5093494;28;20777;-52
2021/03/25 12:47:48;;;;;;;29.07;22.53;;;19.30;40.50;;;;;;5094438;28;20631;-54
2021/03/25 12:50:15;;;;;;;32.93;25.57;;;19.60;40.30;;;;;;5091769;28;20697;-54
2021/03/25 12:52:42;;;;;;;32.50;25.80;;;19.80;40.10;;;;;;5092641;28;20961;-53
2021/03/25 12:55:09;;;;;;;27.23;22.90;;;19.80;40.00;;;;;;5091283;28;20961;-54
2021/03/25 12:57:37;;;;;;;30.30;25.87;;;19.80;40.00;;;;;;5091665;28;20701;-53